Time;durP1;ratioP1;P1;durP2;ratioP2;P2;SDS_P1;SDS_P2;PMS_P1;PMS_P2;Temp;Humidity;BMP_temperature;BMP_pressure;BME280_temperature;BME280_humidity;BME280_pressure;Samples;Min_cycle;Max_cycle;Signal;HPM_P1;HPM_P2
2021/11/17 02:27:46;;;;;;;18.73;11.65;;;;;;;5.54;100.00;93599.00;5051005;28;20056;-80
2021/11/17 02:30:36;;;;;;;19.55;11.82;;;;;;;5.58;100.00;93605.34;5050521;28;20044;-80
2021/11/17 02:33:19;;;;;;;18.50;11.70;;;;;;;5.60;100.00;93611.06;5050487;28;20049;-80
2021/11/17 02:36:13;;;;;;;13.52;9.60;;;;;;;5.60;100.00;93610.28;5050374;28;20049;-80
2021/11/17 02:38:59;;;;;;;16.08;10.63;;;;;;;5.58;100.00;93615.53;5049632;28;20044;-80
2021/11/17 02:41:49;;;;;;;15.63;11.70;;;;;;;5.61;100.00;93610.09;5050140;28;20052;-80
2021/11/17 02:44:30;;;;;;;16.20;10.27;;;;;;;5.63;100.00;93607.38;5050509;28;20041;-81
2021/11/17 02:47:20;;;;;;;14.20;10.32;;;;;;;5.64;100.00;93606.41;5051112;28;20056;-80
2021/11/17 02:50:04;;;;;;;18.55;12.93;;;;;;;5.58;100.00;93610.44;5050301;28;20056;-80
2021/11/17 02:52:51;;;;;;;16.75;11.40;;;;;;;5.54;100.00;93606.66;5050877;28;20041;-79
2021/11/17 02:55:33;;;;;;;16.60;11.32;;;;;;;5.62;100.00;93605.81;5048543;28;20057;-79
2021/11/17 02:58:30;;;;;;;19.85;10.85;;;;;;;5.48;100.00;93604.78;5048989;28;20496;-79
2021/11/17 03:01:23;;;;;;;15.90;10.65;;;;;;;5.43;100.00;93610.38;5049050;28;20076;-79
2021/11/17 03:04:03;;;;;;;13.60;10.27;;;;;;;5.41;100.00;93603.88;5049101;28;20056;-80
2021/11/17 03:06:44;;;;;;;16.90;10.30;;;;;;;5.22;100.00;93591.38;5049253;28;20756;-80
2021/11/17 03:09:29;;;;;;;15.13;10.40;;;;;;;5.09;100.00;93593.66;5046747;28;20401;-80
2021/11/17 03:12:20;;;;;;;13.27;9.55;;;;;;;4.97;100.00;93589.88;5047791;28;20143;-80
2021/11/17 03:15:03;;;;;;;13.68;10.43;;;;;;;4.74;100.00;93557.53;5048987;28;20056;-80
2021/11/17 03:17:53;;;;;;;16.10;10.57;;;;;;;4.84;100.00;93582.78;5049921;28;20061;-80
2021/11/17 03:20:44;;;;;;;16.70;11.25;;;;;;;4.80;100.00;93588.19;5053640;28;20053;-80
2021/11/17 03:23:29;;;;;;;18.75;12.57;;;;;;;4.61;100.00;93586.03;5052570;28;20057;-80
2021/11/17 03:26:14;;;;;;;24.25;14.85;;;;;;;4.48;100.00;93586.53;5053262;28;20049;-80
2021/11/17 03:29:01;;;;;;;24.90;15.13;;;;;;;4.22;100.00;93547.63;5052763;28;20056;-80
2021/11/17 03:31:52;;;;;;;20.90;14.65;;;;;;;4.43;100.00;93581.94;5053063;28;20159;-79
2021/11/17 03:34:39;;;;;;;22.35;14.93;;;;;;;4.39;100.00;93581.47;5050425;28;20037;-80
2021/11/17 03:37:33;;;;;;;24.67;15.65;;;;;;;4.21;100.00;93553.69;5053119;28;20408;-80
2021/11/17 03:40:26;;;;;;;26.87;17.10;;;;;;;4.33;100.00;93571.94;5053671;28;20412;-79
2021/11/17 03:43:25;;;;;;;26.77;16.55;;;;;;;4.38;100.00;93572.25;5052976;28;20049;-79
2021/11/17 03:46:04;;;;;;;27.52;16.60;;;;;;;4.38;100.00;93571.44;5051366;28;20045;-79
2021/11/17 03:48:56;;;;;;;23.48;15.68;;;;;;;4.57;100.00;93572.06;5052984;28;21163;-80
2021/11/17 03:51:40;;;;;;;20.45;13.68;;;;;;;4.50;100.00;93552.34;5052841;28;20048;-80
2021/11/17 03:54:24;;;;;;;24.20;13.70;;;;;;;4.80;100.00;93569.59;5052647;28;20045;-79
2021/11/17 03:57:15;;;;;;;19.60;14.13;;;;;;;4.90;100.00;93572.72;5053097;28;20045;-80
2021/11/17 03:59:54;;;;;;;22.45;14.30;;;;;;;4.72;100.00;93539.88;5052354;28;20049;-80
2021/11/17 04:02:43;;;;;;;23.27;15.25;;;;;;;5.00;100.00;93580.16;5052881;28;20045;-80
2021/11/17 04:05:31;;;;;;;22.48;14.02;;;;;;;5.06;100.00;93582.03;5052321;28;20049;-79
2021/11/17 04:08:15;;;;;;;21.35;14.05;;;;;;;5.12;100.00;93584.88;5052367;28;20049;-79
2021/11/17 04:11:00;;;;;;;20.25;14.68;;;;;;;5.07;100.00;93577.75;5052112;28;20516;-79
2021/11/17 04:13:35;;;;;;;20.80;12.20;;;;;;;5.13;100.00;93583.94;5052458;28;20407;-79
2021/11/17 04:16:15;;;;;;;19.80;12.88;;;;;;;5.15;100.00;93584.56;5052190;28;20060;-80
2021/11/17 04:18:53;;;;;;;19.35;11.88;;;;;;;5.20;100.00;93579.75;5052184;28;20107;-80
2021/11/17 04:21:36;;;;;;;19.92;12.73;;;;;;;5.21;100.00;93591.53;5051910;28;20053;-80
2021/11/17 04:24:23;;;;;;;16.25;11.10;;;;;;;5.11;100.00;93575.66;5051817;28;20107;-80
2021/11/17 04:27:09;;;;;;;14.68;10.55;;;;;;;5.06;100.00;93573.63;5051845;28;20049;-80
2021/11/17 04:29:59;;;;;;;19.10;11.82;;;;;;;5.21;100.00;93588.97;5051619;28;20056;-79
2021/11/17 04:32:49;;;;;;;16.15;11.32;;;;;;;5.20;100.00;93588.19;5052107;28;20443;-80
2021/11/17 04:35:49;;;;;;;14.50;9.65;;;;;;;5.20;100.00;93589.94;5051420;28;20056;-79
2021/11/17 04:38:45;;;;;;;13.23;10.70;;;;;;;5.12;100.00;93575.50;5052006;28;20049;-79
2021/11/17 04:41:39;;;;;;;16.20;10.43;;;;;;;5.05;100.00;93572.81;5051844;28;20051;-79
2021/11/17 04:44:23;;;;;;;14.98;10.27;;;;;;;5.16;100.00;93593.78;5051685;28;20390;-80
2021/11/17 04:47:13;;;;;;;16.50;10.82;;;;;;;4.91;100.00;93559.03;5051926;28;20775;-80
2021/11/17 04:49:59;;;;;;;17.23;11.15;;;;;;;5.10;100.00;93591.91;5051422;28;20049;-80
2021/11/17 04:52:45;;;;;;;16.77;11.18;;;;;;;5.10;100.00;93597.81;5051674;28;20040;-80
2021/11/17 04:55:18;;;;;;;;;;;;;;;5.12;100.00;93597.63;5051692;28;20140;-80
2021/11/17 04:58:03;;;;;;;19.23;12.68;;;;;;;4.95;100.00;93579.88;5051641;28;19999;-80
2021/11/17 05:01:01;;;;;;;17.75;12.40;;;;;;;5.07;100.00;93591.28;5051450;28;20045;-80
2021/11/17 05:03:41;;;;;;;21.02;14.40;;;;;;;5.02;100.00;93600.38;5051104;28;20088;-79
2021/11/17 05:06:21;;;;;;;19.95;12.63;;;;;;;4.97;100.00;93593.25;5051140;28;20044;-79
2021/11/17 05:08:56;;;;;;;18.33;11.80;;;;;;;4.95;100.00;93588.31;5051173;28;20492;-79
2021/11/17 05:11:35;;;;;;;22.23;13.60;;;;;;;4.94;100.00;93602.00;5050979;28;20057;-80
2021/11/17 05:14:19;;;;;;;20.58;12.95;;;;;;;4.79;100.00;93581.53;5051021;28;20041;-80
2021/11/17 05:16:57;;;;;;;21.83;13.25;;;;;;;4.83;100.00;93592.19;5051123;28;20048;-79
2021/11/17 05:19:33;;;;;;;21.60;12.70;;;;;;;4.55;100.00;93559.50;5050863;28;20546;-79
2021/11/17 05:22:15;;;;;;;18.02;11.05;;;;;;;4.71;100.00;93594.28;5051194;28;20052;-79
2021/11/17 05:24:54;;;;;;;18.45;13.32;;;;;;;4.79;100.00;93603.63;5051260;28;20404;-79
2021/11/17 05:27:35;;;;;;;20.95;13.48;;;;;;;4.77;100.00;93603.00;5050916;28;20052;-80
2021/11/17 05:30:22;;;;;;;27.15;15.98;;;;;;;4.63;100.00;93579.81;5050780;28;20045;-79
2021/11/17 05:33:01;;;;;;;31.27;19.33;;;;;;;4.70;100.00;93595.22;5050648;28;20488;-79
2021/11/17 05:35:45;;;;;;;22.45;14.77;;;;;;;4.78;100.00;93618.09;5051121;28;20056;-79
2021/11/17 05:38:23;;;;;;;23.77;15.15;;;;;;;4.76;100.00;93616.66;5050546;28;20052;-79
2021/11/17 05:41:06;;;;;;;24.88;15.93;;;;;;;4.77;100.00;93613.97;5050278;28;20057;-80
2021/11/17 05:43:46;;;;;;;29.52;18.50;;;;;;;4.67;100.00;93601.44;5050369;28;20044;-79
2021/11/17 05:46:26;;;;;;;35.60;20.83;;;;;;;4.74;100.00;93616.84;5050170;28;20057;-79
2021/11/17 05:49:04;;;;;;;32.00;19.65;;;;;;;4.82;100.00;93616.81;5050495;28;20049;-79
2021/11/17 05:51:47;;;;;;;32.65;20.17;;;;;;;4.77;100.00;93601.25;5050172;28;20060;-79
2021/11/17 05:54:34;;;;;;;39.53;24.27;;;;;;;4.88;100.00;93627.31;5050219;28;20056;-79
2021/11/17 05:57:22;;;;;;;33.92;20.88;;;;;;;4.94;100.00;93626.66;5050520;28;20045;-79
2021/11/17 06:00:07;;;;;;;35.63;21.70;;;;;;;4.98;100.00;93627.09;5050273;28;20049;-79
2021/11/17 06:03:00;;;;;;;30.65;18.10;;;;;;;5.06;100.00;93634.72;5050272;28;20052;-79
2021/11/17 06:05:26;;;;;;;27.95;16.45;;;;;;;5.10;100.00;93635.19;5050148;28;20891;-79
2021/11/17 06:07:53;;;;;;;;;;;;;;;5.11;100.00;93639.31;5050682;28;20045;-80
2021/11/17 06:10:25;;;;;;;32.80;18.30;;;;;;;5.15;100.00;93643.13;5050394;28;19921;-79
2021/11/17 06:12:52;;;;;;;29.95;16.95;;;;;;;5.20;100.00;93641.66;5050260;28;20053;-80
2021/11/17 06:15:20;;;;;;;34.88;18.88;;;;;;;5.20;100.00;93633.25;5049928;28;20492;-78
2021/11/17 06:17:51;;;;;;;32.47;17.75;;;;;;;5.30;100.00;93644.03;5049912;28;20053;-78
2021/11/17 06:20:19;;;;;;;111.90;57.78;;;;;;;5.37;100.00;93643.38;5049990;28;20052;-79
2021/11/17 06:22:48;;;;;;;124.07;62.45;;;;;;;5.29;100.00;93631.47;5049755;28;20049;-78
2021/11/17 06:25:17;;;;;;;94.63;48.40;;;;;;;5.46;100.00;93650.03;5049640;28;20045;-79
2021/11/17 06:27:49;;;;;;;75.28;41.33;;;;;;;5.51;100.00;93657.94;5049579;28;20053;-80
2021/11/17 06:30:18;;;;;;;78.97;42.30;;;;;;;5.52;100.00;93658.72;5045679;28;20052;-79
2021/11/17 06:32:46;;;;;;;71.78;39.00;;;;;;;5.49;100.00;93652.22;5048301;28;20511;-79
2021/11/17 06:35:16;;;;;;;71.07;38.35;;;;;;;5.60;100.00;93661.25;5049626;28;20056;-80
2021/11/17 06:37:43;;;;;;;53.20;30.67;;;;;;;5.65;100.00;93661.53;5049915;28;20049;-79
2021/11/17 06:40:15;;;;;;;45.40;25.58;;;;;;;5.43;100.00;93646.06;5049374;28;20044;-79
2021/11/17 06:42:44;;;;;;;31.23;19.70;;;;;;;5.15;100.00;93656.69;5049836;28;20085;-79
2021/11/17 06:45:15;;;;;;;36.35;22.98;;;;;;;4.98;100.00;93660.22;5049891;28;20064;-79
2021/11/17 06:47:43;;;;;;;36.05;22.70;;;;;;;4.84;100.00;93654.03;5049752;28;20095;-79
2021/11/17 06:50:11;;;;;;;38.05;23.27;;;;;;;4.95;100.00;93659.59;5049321;28;20056;-79
2021/11/17 06:52:38;;;;;;;43.88;24.38;;;;;;;5.01;100.00;93644.63;5048677;28;20053;-79
2021/11/17 06:55:06;;;;;;;37.20;22.80;;;;;;;4.86;100.00;93621.59;5049595;28;20053;-79
2021/11/17 06:57:34;;;;;;;40.90;24.35;;;;;;;5.08;100.00;93659.06;5049151;28;20049;-79
2021/11/17 07:00:01;;;;;;;33.80;21.52;;;;;;;5.16;100.00;93658.25;5049663;28;20048;-79
2021/11/17 07:02:29;;;;;;;38.90;24.98;;;;;;;5.27;100.00;93653.75;5049539;28;20049;-79
2021/11/17 07:04:56;;;;;;;38.45;21.98;;;;;;;5.27;100.00;93661.41;5049175;28;20049;-79
2021/11/17 07:07:23;;;;;;;34.03;21.77;;;;;;;5.27;100.00;93654.53;5049571;28;20146;-79
2021/11/17 07:09:49;;;;;;;36.70;20.60;;;;;;;5.44;100.00;93659.56;5049421;28;20049;-80
2021/11/17 07:12:16;;;;;;;34.60;20.50;;;;;;;5.38;100.00;93652.59;5049416;28;20049;-80
2021/11/17 07:14:44;;;;;;;35.58;20.02;;;;;;;5.44;100.00;93659.56;5049130;28;20045;-80
2021/11/17 07:17:11;;;;;;;32.60;19.85;;;;;;;5.38;100.00;93643.22;5049013;28;20071;-79
2021/11/17 07:19:39;;;;;;;27.50;17.83;;;;;;;5.59;100.00;93667.28;5049455;28;20041;-80
2021/11/17 07:22:08;;;;;;;29.17;18.58;;;;;;;5.68;100.00;93668.84;5049131;28;20045;-80
2021/11/17 07:24:37;;;;;;;28.40;18.70;;;;;;;5.81;100.00;93662.41;5049102;28;20041;-79
2021/11/17 07:27:04;;;;;;;26.25;17.95;;;;;;;5.70;100.00;93659.25;5049007;28;20059;-79
2021/11/17 07:29:31;;;;;;;41.08;26.50;;;;;;;5.75;100.00;93664.66;5049092;28;20397;-80
2021/11/17 07:31:58;;;;;;;36.53;22.90;;;;;;;5.73;100.00;93643.66;5049302;28;20049;-79
2021/11/17 07:34:25;;;;;;;29.02;17.23;;;;;;;5.89;100.00;93663.13;5049001;28;20068;-79
2021/11/17 07:36:54;;;;;;;34.63;22.42;;;;;;;6.08;100.00;93666.25;5048888;28;20045;-79
2021/11/17 07:39:20;;;;;;;28.42;18.45;;;;;;;5.89;100.00;93670.78;5049137;28;20063;-80
2021/11/17 07:41:49;;;;;;;28.92;17.10;;;;;;;5.83;100.00;93648.53;5049324;28;20049;-79
2021/11/17 07:44:17;;;;;;;29.15;17.67;;;;;;;6.10;100.00;93668.59;5048678;28;20053;-80
2021/11/17 07:46:44;;;;;;;25.15;16.33;;;;;;;5.96;100.00;93667.56;5049044;28;20085;-79
2021/11/17 07:49:12;;;;;;;30.13;19.08;;;;;;;6.12;100.00;93675.13;5048999;28;20139;-80
2021/11/17 07:51:39;;;;;;;33.63;19.75;;;;;;;6.33;100.00;93668.59;5048711;28;20057;-79
2021/11/17 07:54:09;;;;;;;34.75;21.20;;;;;;;6.41;100.00;93657.53;5048883;28;20045;-79
2021/11/17 07:56:37;;;;;;;32.85;19.08;;;;;;;6.67;100.00;93674.25;5048931;28;20373;-79
2021/11/17 07:59:06;;;;;;;33.50;19.25;;;;;;;6.67;100.00;93669.91;5049528;28;20068;-79
2021/11/17 08:01:34;;;;;;;25.48;16.77;;;;;;;6.53;100.00;93676.56;5048774;28;20048;-79
2021/11/17 08:04:01;;;;;;;37.53;19.50;;;;;;;6.36;100.00;93670.81;5050679;28;20416;-79
2021/11/17 08:06:29;;;;;;;27.88;18.05;;;;;;;6.59;100.00;93672.56;5052509;28;20578;-79
2021/11/17 08:08:57;;;;;;;36.15;18.02;;;;;;;6.63;100.00;93671.22;5052578;28;20118;-79
2021/11/17 08:11:25;;;;;;;29.80;17.55;;;;;;;6.82;100.00;93672.47;5052113;28;20053;-79
2021/11/17 08:13:53;;;;;;;42.67;21.35;;;;;;;6.79;100.00;93672.84;5051939;28;20061;-79
2021/11/17 08:16:20;;;;;;;30.70;18.60;;;;;;;6.86;100.00;93672.13;5052517;28;20049;-79
2021/11/17 08:18:46;;;;;;;41.05;19.83;;;;;;;6.71;100.00;93665.25;5052349;28;20052;-79
2021/11/17 08:21:15;;;;;;;33.85;18.10;;;;;;;6.91;100.00;93680.84;5051851;28;20045;-79
2021/11/17 08:23:42;;;;;;;40.03;19.15;;;;;;;6.93;100.00;93652.59;5051967;28;20045;-79
2021/11/17 08:26:10;;;;;;;33.05;17.70;;;;;;;6.68;100.00;93683.47;5051791;28;20049;-79
2021/11/17 08:28:39;;;;;;;35.30;18.65;;;;;;;6.97;99.93;93673.47;5051928;28;20053;-79
2021/11/17 08:31:06;;;;;;;26.70;16.23;;;;;;;6.61;99.43;93677.50;5052005;28;20049;-79
2021/11/17 08:33:33;;;;;;;32.88;16.80;;;;;;;6.41;100.00;93677.97;5051775;28;20061;-78
2021/11/17 08:36:01;;;;;;;27.42;16.52;;;;;;;6.56;100.00;93678.00;5051694;28;20095;-79
2021/11/17 08:38:28;;;;;;;24.05;15.52;;;;;;;6.71;100.00;93679.78;5052036;28;20389;-78
2021/11/17 08:40:58;;;;;;;24.33;15.07;;;;;;;6.75;99.65;93676.69;5051503;28;20041;-79
2021/11/17 08:43:25;;;;;;;27.83;14.80;;;;;;;6.78;98.93;93671.25;5051490;28;20053;-79
2021/11/17 08:45:54;;;;;;;28.75;15.10;;;;;;;6.61;98.87;93669.84;5051416;28;20052;-80
2021/11/17 08:48:22;;;;;;;26.95;14.80;;;;;;;6.28;99.47;93671.69;5056635;28;20052;-79
2021/11/17 08:50:51;;;;;;;24.40;14.48;;;;;;;6.17;99.59;93655.97;5051656;28;20064;-79
2021/11/17 08:53:20;;;;;;;23.80;14.15;;;;;;;6.39;98.66;93642.41;5051639;28;20095;-79
2021/11/17 08:55:47;;;;;;;26.83;14.57;;;;;;;6.70;99.86;93665.44;5051707;28;20045;-79
2021/11/17 08:58:15;;;;;;;51.05;22.73;;;;;;;6.78;97.41;93667.91;5051068;28;20053;-79
2021/11/17 09:00:43;;;;;;;25.00;15.32;;;;;;;7.00;97.01;93661.16;5051373;28;20049;-79
2021/11/17 09:03:12;;;;;;;32.40;14.55;;;;;;;7.32;95.78;93655.84;5051178;28;20594;-79
2021/11/17 09:05:41;;;;;;;23.50;13.10;;;;;;;7.22;93.78;93646.69;5051595;28;20056;-79
2021/11/17 09:08:09;;;;;;;24.35;14.82;;;;;;;7.16;94.09;93631.25;5051289;28;20400;-79
2021/11/17 09:10:39;;;;;;;22.45;13.25;;;;;;;7.58;92.60;93654.56;5051638;28;20558;-79
2021/11/17 09:13:07;;;;;;;22.67;12.60;;;;;;;7.78;90.83;93657.31;5051049;28;20559;-79
2021/11/17 09:15:37;;;;;;;17.38;11.55;;;;;;;7.74;88.47;93653.56;5049769;28;20045;-80
2021/11/17 09:18:05;;;;;;;19.90;11.85;;;;;;;7.94;87.78;93658.88;5051153;28;20053;-80
2021/11/17 09:20:35;;;;;;;16.77;11.20;;;;;;;8.15;87.27;93650.41;5050876;28;20049;-79
2021/11/17 09:23:03;;;;;;;21.48;12.63;;;;;;;8.37;89.19;93654.72;5050886;28;20052;-79
2021/11/17 09:25:31;;;;;;;17.15;10.23;;;;;;;8.42;87.85;93640.38;5051264;28;20099;-80
2021/11/17 09:27:58;;;;;;;21.23;12.98;;;;;;;8.70;87.02;93646.50;5050807;28;20052;-80
2021/11/17 09:30:27;;;;;;;19.15;10.73;;;;;;;8.86;84.01;93654.91;5050999;28;20053;-80
2021/11/17 09:32:56;;;;;;;16.98;10.32;;;;;;;8.74;83.42;93657.19;5050501;28;20045;-79
2021/11/17 09:35:23;;;;;;;18.48;11.50;;;;;;;8.39;84.91;93647.66;5050510;28;20049;-79
2021/11/17 09:37:53;;;;;;;18.30;11.30;;;;;;;8.48;85.64;93633.72;5050536;28;20060;-79
2021/11/17 09:40:24;;;;;;;18.73;11.07;;;;;;;8.29;86.16;93630.84;5050523;28;20060;-79
2021/11/17 09:42:52;;;;;;;15.55;10.25;;;;;;;8.67;85.76;93641.78;5050772;28;20110;-78
2021/11/17 09:45:19;;;;;;;16.35;9.90;;;;;;;8.89;85.09;93634.03;5050632;28;20053;-78
2021/11/17 09:47:48;;;;;;;15.45;10.25;;;;;;;8.72;82.89;93631.78;5050679;28;20067;-79
2021/11/17 09:50:25;;;;;;;15.35;10.35;;;;;;;8.58;83.53;93636.00;5050322;28;20049;-79
2021/11/17 09:52:57;;;;;;;13.45;9.52;;;;;;;8.58;81.42;93607.84;5050235;28;20172;-79
2021/11/17 09:55:28;;;;;;;16.27;10.35;;;;;;;8.95;83.99;93623.03;5050418;28;20056;-79
2021/11/17 09:58:00;;;;;;;17.02;10.30;;;;;;;9.20;83.29;93627.69;5050492;28;20045;-79
2021/11/17 10:00:30;;;;;;;16.00;10.70;;;;;;;9.17;78.52;93616.03;5049980;28;20063;-79
2021/11/17 10:03:07;;;;;;;15.70;10.18;;;;;;;9.04;79.73;93570.66;5050156;28;20044;-79
2021/11/17 10:09:13;;;;;;;19.83;12.55;;;;;;;9.81;78.29;93612.50;5049960;28;20458;-78
2021/11/17 10:14:42;;;;;;;18.75;10.02;;;;;;;9.94;77.88;93607.38;5049616;28;20442;-78
2021/11/17 10:17:32;;;;;;;14.25;9.93;;;;;;;10.00;75.33;93604.03;5046687;28;20041;-78
2021/11/17 10:20:09;;;;;;;19.92;11.70;;;;;;;9.96;74.28;93604.63;5037399;28;20497;-78
2021/11/17 10:22:37;;;;;;;14.95;10.13;;;;;;;9.83;73.11;93601.06;5047828;28;20361;-78
2021/11/17 10:25:11;;;;;;;19.80;10.18;;;;;;;9.65;75.76;93593.09;5049704;28;20052;-78
2021/11/17 10:27:48;;;;;;;17.25;11.02;;;;;;;9.87;77.23;93579.13;5049400;28;20044;-78
2021/11/17 10:30:23;;;;;;;36.15;21.13;;;;;;;10.16;76.53;93595.16;5049538;28;20492;-78
2021/11/17 10:33:12;;;;;;;17.05;10.52;;;;;;;10.29;74.09;93586.66;5054082;28;20052;-79
2021/11/17 10:35:44;;;;;;;18.50;10.75;;;;;;;10.45;74.79;93584.72;5055681;28;20045;-79
2021/11/17 10:38:18;;;;;;;28.10;15.20;;;;;;;10.65;74.22;93594.94;5055410;28;20041;-79
2021/11/17 10:40:53;;;;;;;27.90;19.55;;;;;;;10.71;73.69;93590.81;5055496;28;20500;-79
2021/11/17 10:43:25;;;;;;;68.53;43.42;;;;;;;10.81;73.81;93577.53;5054112;28;20119;-79
2021/11/17 10:46:02;;;;;;;55.08;31.85;;;;;;;10.93;73.26;93575.91;5054127;28;20098;-79
2021/11/17 10:48:33;;;;;;;41.05;24.02;;;;;;;11.01;72.36;93579.28;5055154;28;20044;-79
2021/11/17 10:51:15;;;;;;;46.33;26.38;;;;;;;11.04;71.61;93574.50;5055090;28;20516;-79
2021/11/17 10:53:42;;;;;;;33.38;20.60;;;;;;;11.14;71.59;93568.94;5055287;28;20055;-79
2021/11/17 10:56:13;;;;;;;33.60;19.80;;;;;;;11.15;70.77;93578.22;5054778;28;20049;-79
2021/11/17 10:58:42;;;;;;;23.80;13.00;;;;;;;11.22;70.89;93571.25;5055216;28;20059;-79
2021/11/17 11:01:14;;;;;;;48.75;29.92;;;;;;;11.30;70.34;93574.63;5055081;28;20040;-79
2021/11/17 11:03:45;;;;;;;15.73;10.70;;;;;;;11.21;68.38;93571.47;5055551;28;20451;-79
2021/11/17 11:06:18;;;;;;;22.52;14.38;;;;;;;11.14;71.35;93556.06;5054718;28;20534;-79
2021/11/17 11:08:57;;;;;;;21.48;12.35;;;;;;;11.12;70.17;93544.41;5054872;28;20044;-79
2021/11/17 11:11:27;;;;;;;24.73;16.08;;;;;;;11.27;70.42;93557.81;5055053;28;20049;-79
2021/11/17 11:14:00;;;;;;;14.45;9.52;;;;;;;11.30;68.60;93554.81;5055468;28;20037;-79
2021/11/17 11:16:36;;;;;;;19.02;11.68;;;;;;;11.27;70.46;93557.81;5055108;28;20455;-79
2021/11/17 11:19:29;;;;;;;15.68;10.15;;;;;;;11.22;70.78;93560.97;5055565;28;20096;-79
2021/11/17 11:22:17;;;;;;;33.22;19.67;;;;;;;11.18;70.43;93566.75;5055258;28;20049;-79
2021/11/17 11:24:46;;;;;;;19.60;11.80;;;;;;;11.17;70.59;93553.13;5050696;28;20048;-79
2021/11/17 11:27:27;;;;;;;16.83;10.38;;;;;;;11.05;69.79;93547.81;5054514;28;20063;-79
2021/11/17 11:30:34;;;;;;;13.40;9.45;;;;;;;11.03;70.99;93547.22;5054630;28;20040;-79
2021/11/17 11:33:19;;;;;;;34.15;21.45;;;;;;;10.91;70.97;93543.69;5051060;28;20815;-79
2021/11/17 11:36:27;;;;;;;17.40;11.53;;;;;;;10.84;71.52;93546.31;5055185;28;20098;-80
2021/11/17 11:39:33;;;;;;;22.30;13.90;;;;;;;10.73;72.20;93547.69;5056638;28;20423;-80
2021/11/17 11:42:13;;;;;;;58.55;36.72;;;;;;;10.37;72.07;93513.75;5058647;28;20051;-79
2021/11/17 11:44:44;;;;;;;39.85;25.55;;;;;;;10.24;73.37;93518.94;5057741;28;20062;-79
2021/11/17 11:47:34;;;;;;;28.15;15.50;;;;;;;10.27;73.77;93539.84;5058022;28;20053;-79
2021/11/17 11:50:26;;;;;;;10.10;6.75;;;;;;;9.00;75.31;93512.28;5059056;28;20051;-79
2021/11/17 11:53:00;;;;;;;12.57;8.45;;;;;;;9.23;77.13;93533.25;5058338;28;20201;-79
2021/11/17 11:55:47;;;;;;;15.25;8.50;;;;;;;9.16;75.93;93501.69;5058535;28;20109;-79
2021/11/17 11:58:44;;;;;;;15.52;9.65;;;;;;;9.35;77.15;93536.03;5058254;28;20053;-79
2021/11/17 12:01:17;;;;;;;21.20;11.40;;;;;;;9.53;76.77;93536.47;5058075;28;20045;-79
2021/11/17 12:03:50;;;;;;;21.00;12.85;;;;;;;9.72;76.63;93524.69;5058009;28;20052;-79
2021/11/17 12:06:23;;;;;;;21.58;13.27;;;;;;;9.65;76.42;93506.72;5058406;28;20044;-79
2021/11/17 12:08:57;;;;;;;17.95;11.10;;;;;;;9.74;76.23;93502.16;5057909;28;20571;-78
2021/11/17 12:11:28;;;;;;;22.30;12.27;;;;;;;9.98;75.71;93518.75;5058025;28;20103;-78
2021/11/17 12:14:03;;;;;;;19.08;12.25;;;;;;;10.00;75.40;93513.44;5058605;28;20444;-78
2021/11/17 12:16:34;;;;;;;14.70;10.93;;;;;;;10.16;75.95;93531.00;5057726;28;20506;-78
2021/11/17 12:19:03;;;;;;;14.95;9.63;;;;;;;10.16;75.48;93517.34;5057726;28;20421;-78
2021/11/17 12:21:34;;;;;;;12.38;7.85;;;;;;;10.23;72.45;93527.63;5057680;28;20040;-79
2021/11/17 12:24:05;;;;;;;16.00;9.90;;;;;;;10.23;72.94;93515.56;5057753;28;20045;-78
2021/11/17 12:26:34;;;;;;;15.95;10.18;;;;;;;10.29;72.45;93514.75;5057137;28;20037;-79
2021/11/17 12:29:06;;;;;;;14.98;10.23;;;;;;;10.38;73.91;93515.34;5057564;28;20518;-79
2021/11/17 12:31:39;;;;;;;13.00;8.23;;;;;;;10.41;74.34;93517.53;5056644;28;20110;-78
2021/11/17 12:34:13;;;;;;;16.92;10.68;;;;;;;10.50;73.86;93514.75;5057112;28;20041;-79
2021/11/17 12:36:56;;;;;;;16.80;10.68;;;;;;;10.40;74.13;93490.28;5056906;28;20055;-78
2021/11/17 12:39:27;;;;;;;14.93;9.10;;;;;;;10.56;73.48;93508.84;5057196;28;20045;-79
2021/11/17 12:41:56;;;;;;;12.32;8.93;;;;;;;10.56;73.19;93512.19;5057785;28;20053;-79
2021/11/17 12:44:27;;;;;;;15.45;9.50;;;;;;;10.54;73.86;93510.78;5057337;28;20504;-79
2021/11/17 12:47:04;;;;;;;14.05;8.45;;;;;;;10.40;73.38;93489.47;5057660;28;20071;-78
2021/11/17 12:49:35;;;;;;;14.07;8.55;;;;;;;10.52;73.57;93508.44;5057464;28;20045;-78
2021/11/17 12:52:07;;;;;;;14.82;8.95;;;;;;;10.51;73.19;93500.94;5056958;28;20156;-79
2021/11/17 12:54:37;;;;;;;12.82;8.85;;;;;;;10.43;72.81;93492.44;5057429;28;20052;-79
2021/11/17 12:57:08;;;;;;;13.23;9.45;;;;;;;10.60;72.84;93515.13;5053647;28;20056;-79
2021/11/17 12:59:39;;;;;;;14.80;9.85;;;;;;;10.50;73.61;93497.56;5055318;28;20048;-79
2021/11/17 13:02:29;;;;;;;30.20;15.98;;;;;;;10.67;73.55;93509.97;5057345;28;20057;-79
2021/11/17 13:05:19;;;;;;;14.75;9.57;;;;;;;10.68;71.68;93511.56;5057331;28;20053;-79
2021/11/17 13:07:49;;;;;;;11.68;8.07;;;;;;;10.43;71.24;93507.09;5057390;28;20041;-78
2021/11/17 13:10:26;;;;;;;14.23;8.85;;;;;;;9.98;72.11;93520.53;5056904;28;20880;-78
2021/11/17 13:13:02;;;;;;;12.40;8.20;;;;;;;9.49;74.34;93495.03;5056618;28;20049;-78
2021/11/17 13:15:37;;;;;;;;;;;;;;;9.47;75.17;93508.06;5056690;28;20045;-79
2021/11/17 13:18:07;;;;;;;13.27;8.65;;;;;;;9.49;75.82;93511.22;5055951;28;19951;-79
2021/11/17 13:20:45;;;;;;;19.77;11.40;;;;;;;9.37;76.61;93476.88;5056785;28;20048;-78
2021/11/17 13:23:26;;;;;;;18.38;11.65;;;;;;;9.19;78.70;93501.31;5056706;28;20435;-78
2021/11/17 13:25:55;;;;;;;17.60;11.77;;;;;;;9.01;80.20;93489.03;5056697;28;20053;-79
2021/11/17 13:28:44;;;;;;;16.05;11.68;;;;;;;8.87;81.08;93500.22;5056257;28;20037;-78
2021/11/17 13:31:32;;;;;;;15.82;10.23;;;;;;;8.51;83.20;93500.22;5054343;28;20056;-79
2021/11/17 13:34:01;;;;;;;18.52;11.85;;;;;;;8.37;84.05;93499.38;5055885;28;20141;-78
2021/11/17 13:36:54;;;;;;;17.80;13.45;;;;;;;8.37;85.12;93499.38;5056157;28;20049;-78
2021/11/17 13:39:24;;;;;;;19.02;12.95;;;;;;;8.25;85.48;93493.19;5056362;28;20056;-78
2021/11/17 13:41:54;;;;;;;17.30;11.25;;;;;;;8.09;85.43;93489.16;5055064;28;20150;-79
2021/11/17 13:44:23;;;;;;;18.13;12.10;;;;;;;7.85;86.27;93468.94;5056122;28;20041;-78
2021/11/17 13:46:58;;;;;;;16.13;12.02;;;;;;;7.57;87.82;93461.25;5056813;28;20846;-79
2021/11/17 13:49:27;;;;;;;20.40;14.30;;;;;;;7.73;88.56;93486.53;5055906;28;20053;-78
2021/11/17 13:51:54;;;;;;;20.73;12.75;;;;;;;7.58;88.53;93480.72;5054527;28;20044;-78
2021/11/17 13:54:21;;;;;;;19.38;12.82;;;;;;;7.59;88.69;93485.66;5055588;28;20076;-78
2021/11/17 13:56:49;;;;;;;19.08;12.65;;;;;;;7.40;90.18;93486.28;5055002;28;20048;-79
2021/11/17 13:59:17;;;;;;;16.50;11.40;;;;;;;7.53;89.80;93478.72;5056154;28;20051;-78
2021/11/17 14:01:44;;;;;;;20.85;13.85;;;;;;;7.60;89.72;93484.66;5055646;28;20060;-79
2021/11/17 14:04:12;;;;;;;20.02;13.02;;;;;;;7.60;89.82;93496.69;5056935;28;20116;-78
2021/11/17 14:06:39;;;;;;;19.92;13.30;;;;;;;7.47;90.66;93487.13;5055874;28;20431;-78
2021/11/17 14:09:06;;;;;;;18.40;12.43;;;;;;;7.39;90.79;93477.81;5055964;28;20077;-78
2021/11/17 14:11:34;;;;;;;18.83;11.93;;;;;;;7.41;91.08;93498.06;5056119;28;20056;-78
2021/11/17 14:14:02;;;;;;;23.05;13.05;;;;;;;7.17;91.84;93475.25;5055966;28;20049;-78
2021/11/17 14:16:29;;;;;;;21.98;12.65;;;;;;;7.27;91.33;93497.16;5055697;28;20420;-79
2021/11/17 14:18:56;;;;;;;21.42;14.40;;;;;;;7.01;91.89;93460.94;5056198;28;20124;-78
2021/11/17 14:21:26;;;;;;;27.42;16.63;;;;;;;7.26;91.68;93493.03;5055606;28;20045;-78
2021/11/17 14:23:53;;;;;;;20.00;13.65;;;;;;;7.12;92.90;93497.22;5055629;28;20080;-78
2021/11/17 14:26:20;;;;;;;24.75;14.13;;;;;;;6.71;92.69;93458.47;5056341;28;20049;-79
2021/11/17 14:28:50;;;;;;;22.70;13.63;;;;;;;7.09;92.58;93498.38;5055929;28;20045;-78
2021/11/17 14:31:23;;;;;;;21.08;13.82;;;;;;;7.13;92.55;93498.78;5055723;28;20041;-79
2021/11/17 14:33:56;;;;;;;21.02;14.35;;;;;;;7.12;93.05;93495.44;5056525;28;20436;-78